sensor_id;sensor_type;location;lat;lon;timestamp;pressure;altitude;pressure_sealevel;temperature;humidity
70544;BME280;58097;48.364;-1.224;2022-12-07T00:01:38;100186.75;;;1.71;78.25
70544;BME280;58097;48.364;-1.224;2022-12-07T00:04:05;100188.59;;;1.70;78.57
70544;BME280;58097;48.364;-1.224;2022-12-07T00:06:34;100188.59;;;1.70;78.78
70544;BME280;58097;48.364;-1.224;2022-12-07T00:09:00;100190.25;;;1.73;78.83
70544;BME280;58097;48.364;-1.224;2022-12-07T00:11:26;100188.31;;;1.75;78.95
70544;BME280;58097;48.364;-1.224;2022-12-07T00:13:54;100183.84;;;1.74;79.00
70544;BME280;58097;48.364;-1.224;2022-12-07T00:16:22;100191.13;;;1.73;78.75
70544;BME280;58097;48.364;-1.224;2022-12-07T00:18:47;100181.13;;;1.74;78.71
70544;BME280;58097;48.364;-1.224;2022-12-07T00:21:15;100180.16;;;1.75;78.45
70544;BME280;58097;48.364;-1.224;2022-12-07T00:23:42;100177.59;;;1.72;78.43
70544;BME280;58097;48.364;-1.224;2022-12-07T00:26:14;100163.09;;;1.71;78.24
70544;BME280;58097;48.364;-1.224;2022-12-07T00:28:40;100160.38;;;1.71;78.52
70544;BME280;58097;48.364;-1.224;2022-12-07T00:31:08;100149.38;;;1.73;78.79
70544;BME280;58097;48.364;-1.224;2022-12-07T00:33:34;100161.44;;;1.69;78.71
70544;BME280;58097;48.364;-1.224;2022-12-07T00:36:01;100156.31;;;1.64;78.88
70544;BME280;58097;48.364;-1.224;2022-12-07T00:38:29;100163.69;;;1.62;78.99
70544;BME280;58097;48.364;-1.224;2022-12-07T00:40:59;100155.53;;;1.62;78.99
70544;BME280;58097;48.364;-1.224;2022-12-07T00:43:26;100155.53;;;1.62;78.84
70544;BME280;58097;48.364;-1.224;2022-12-07T00:45:52;100149.09;;;1.63;78.76
70544;BME280;58097;48.364;-1.224;2022-12-07T00:48:17;100142.97;;;1.60;78.53
70544;BME280;58097;48.364;-1.224;2022-12-07T00:50:43;100147.56;;;1.59;78.56
70544;BME280;58097;48.364;-1.224;2022-12-07T00:53:08;100160.31;;;1.59;78.71
70544;BME280;58097;48.364;-1.224;2022-12-07T00:55:35;100182.19;;;1.43;79.77
70544;BME280;58097;48.364;-1.224;2022-12-07T00:58:01;100184.13;;;1.41;79.44
70544;BME280;58097;48.364;-1.224;2022-12-07T01:00:26;100185.59;;;1.32;80.83
70544;BME280;58097;48.364;-1.224;2022-12-07T01:02:52;100190.53;;;1.40;80.48
70544;BME280;58097;48.364;-1.224;2022-12-07T01:05:17;100188.59;;;1.42;80.26
70544;BME280;58097;48.364;-1.224;2022-12-07T01:07:42;100192.72;;;1.49;80.04
70544;BME280;58097;48.364;-1.224;2022-12-07T01:10:08;100196.09;;;1.52;80.22
70544;BME280;58097;48.364;-1.224;2022-12-07T01:12:34;100194.34;;;1.51;79.90
70544;BME280;58097;48.364;-1.224;2022-12-07T01:14:59;100187.06;;;1.52;79.97
70544;BME280;58097;48.364;-1.224;2022-12-07T01:17:24;100196.22;;;1.51;80.07
70544;BME280;58097;48.364;-1.224;2022-12-07T01:19:50;100191.53;;;1.53;80.20
70544;BME280;58097;48.364;-1.224;2022-12-07T01:22:15;100197.84;;;1.53;80.13
70544;BME280;58097;48.364;-1.224;2022-12-07T01:24:41;100184.34;;;1.52;80.09
70544;BME280;58097;48.364;-1.224;2022-12-07T01:27:06;100181.41;;;1.55;80.40
70544;BME280;58097;48.364;-1.224;2022-12-07T01:29:31;100185.00;;;1.55;80.35
70544;BME280;58097;48.364;-1.224;2022-12-07T01:31:57;100182.28;;;1.55;80.88
70544;BME280;58097;48.364;-1.224;2022-12-07T01:34:22;100175.97;;;1.55;80.61
70544;BME280;58097;48.364;-1.224;2022-12-07T01:36:47;100175.09;;;1.54;80.72
70544;BME280;58097;48.364;-1.224;2022-12-07T01:39:13;100179.56;;;1.55;80.86
70544;BME280;58097;48.364;-1.224;2022-12-07T01:41:40;100184.91;;;1.57;80.97
70544;BME280;58097;48.364;-1.224;2022-12-07T01:44:12;100179.47;;;1.57;80.95
70544;BME280;58097;48.364;-1.224;2022-12-07T01:46:38;100183.25;;;1.54;80.60
70544;BME280;58097;48.364;-1.224;2022-12-07T01:49:06;100175.97;;;1.55;81.16
70544;BME280;58097;48.364;-1.224;2022-12-07T01:51:34;100172.28;;;1.56;81.26
70544;BME280;58097;48.364;-1.224;2022-12-07T01:54:00;100175.88;;;1.57;81.07
70544;BME280;58097;48.364;-1.224;2022-12-07T01:56:26;100172.38;;;1.54;80.98
70544;BME280;58097;48.364;-1.224;2022-12-07T01:58:54;100169.66;;;1.54;80.92
70544;BME280;58097;48.364;-1.224;2022-12-07T02:01:21;100171.28;;;1.57;80.84
70544;BME280;58097;48.364;-1.224;2022-12-07T02:03:47;100172.16;;;1.58;80.98
70544;BME280;58097;48.364;-1.224;2022-12-07T02:06:17;100177.53;;;1.59;81.09
70544;BME280;58097;48.364;-1.224;2022-12-07T02:08:45;100176.66;;;1.59;80.79
70544;BME280;58097;48.364;-1.224;2022-12-07T02:11:11;100182.97;;;1.59;80.85
70544;BME280;58097;48.364;-1.224;2022-12-07T02:13:38;100181.31;;;1.57;80.67
70544;BME280;58097;48.364;-1.224;2022-12-07T02:16:21;100176.16;;;1.52;80.72
70544;BME280;58097;48.364;-1.224;2022-12-07T02:21:45;100177.34;;;1.48;80.59
70544;BME280;58097;48.364;-1.224;2022-12-07T02:24:43;100178.13;;;1.50;80.69
70544;BME280;58097;48.364;-1.224;2022-12-07T02:34:55;100167.31;;;1.34;81.15
70544;BME280;58097;48.364;-1.224;2022-12-07T02:37:39;100161.94;;;1.33;81.00
70544;BME280;58097;48.364;-1.224;2022-12-07T02:40:12;100162.72;;;1.35;81.30
70544;BME280;58097;48.364;-1.224;2022-12-07T02:42:50;100160.88;;;1.35;81.23
70544;BME280;58097;48.364;-1.224;2022-12-07T02:45:20;100160.41;;;1.29;81.15
70544;BME280;58097;48.364;-1.224;2022-12-07T02:47:48;100147.09;;;1.24;81.20
70544;BME280;58097;48.364;-1.224;2022-12-07T02:50:19;100145.22;;;1.24;80.93
70544;BME280;58097;48.364;-1.224;2022-12-07T02:52:45;100148.06;;;1.23;80.81
70544;BME280;58097;48.364;-1.224;2022-12-07T02:55:11;100145.44;;;1.21;80.77
70544;BME280;58097;48.364;-1.224;2022-12-07T02:57:55;100150.00;;;1.21;80.89
70544;BME280;58097;48.364;-1.224;2022-12-07T03:00:23;100147.19;;;1.22;81.03
70544;BME280;58097;48.364;-1.224;2022-12-07T03:03:01;100141.25;;;1.16;80.99
70544;BME280;58097;48.364;-1.224;2022-12-07T03:05:59;100142.91;;;1.18;80.95
70544;BME280;58097;48.364;-1.224;2022-12-07T03:08:39;100144.56;;;1.21;80.90
70544;BME280;58097;48.364;-1.224;2022-12-07T03:11:17;100145.44;;;1.21;80.99
70544;BME280;58097;48.364;-1.224;2022-12-07T03:14:04;100150.97;;;1.20;80.40
70544;BME280;58097;48.364;-1.224;2022-12-07T03:16:41;100153.91;;;1.17;80.26
70544;BME280;58097;48.364;-1.224;2022-12-07T03:19:13;100157.50;;;1.17;80.19
70544;BME280;58097;48.364;-1.224;2022-12-07T03:21:42;100155.81;;;1.15;80.19
70544;BME280;58097;48.364;-1.224;2022-12-07T03:24:12;100153.47;;;1.09;80.54
70544;BME280;58097;48.364;-1.224;2022-12-07T03:26:43;100163.59;;;1.07;80.37
70544;BME280;58097;48.364;-1.224;2022-12-07T03:29:19;100170.19;;;1.03;80.27
70544;BME280;58097;48.364;-1.224;2022-12-07T03:31:48;100178.53;;;1.00;80.16
70544;BME280;58097;48.364;-1.224;2022-12-07T03:34:19;100179.72;;;0.96;80.04
70544;BME280;58097;48.364;-1.224;2022-12-07T03:37:08;100182.53;;;0.94;80.05
70544;BME280;58097;48.364;-1.224;2022-12-07T03:42:20;100179.13;;;0.90;80.10
70544;BME280;58097;48.364;-1.224;2022-12-07T03:44:45;100181.84;;;0.90;80.02
70544;BME280;58097;48.364;-1.224;2022-12-07T03:49:51;100177.53;;;0.86;79.66
70544;BME280;58097;48.364;-1.224;2022-12-07T03:53:03;100169.56;;;0.83;79.42
70544;BME280;58097;48.364;-1.224;2022-12-07T03:55:33;100175.97;;;0.82;79.56
70544;BME280;58097;48.364;-1.224;2022-12-07T03:58:03;100178.00;;;0.79;79.35
70544;BME280;58097;48.364;-1.224;2022-12-07T04:00:30;100173.53;;;0.78;79.24
70544;BME280;58097;48.364;-1.224;2022-12-07T04:02:56;100170.91;;;0.76;79.53
70544;BME280;58097;48.364;-1.224;2022-12-07T04:05:23;100172.75;;;0.76;79.45
70544;BME280;58097;48.364;-1.224;2022-12-07T04:07:48;100171.59;;;0.80;79.32
70544;BME280;58097;48.364;-1.224;2022-12-07T04:10:14;100159.16;;;0.76;79.56
70544;BME280;58097;48.364;-1.224;2022-12-07T04:12:39;100154.78;;;0.73;79.41
70544;BME280;58097;48.364;-1.224;2022-12-07T04:15:05;100149.34;;;0.73;79.32
70544;BME280;58097;48.364;-1.224;2022-12-07T04:17:31;100155.84;;;0.71;79.26
70544;BME280;58097;48.364;-1.224;2022-12-07T04:19:56;100153.31;;;0.68;79.54
70544;BME280;58097;48.364;-1.224;2022-12-07T04:22:22;100159.72;;;0.67;79.44
70544;BME280;58097;48.364;-1.224;2022-12-07T04:24:47;100156.66;;;0.57;79.00
70544;BME280;58097;48.364;-1.224;2022-12-07T04:27:12;100153.25;;;0.53;79.31
70544;BME280;58097;48.364;-1.224;2022-12-07T04:29:38;100153.25;;;0.53;79.54
70544;BME280;58097;48.364;-1.224;2022-12-07T04:32:03;100149.66;;;0.53;80.04
70544;BME280;58097;48.364;-1.224;2022-12-07T04:34:29;100147.72;;;0.55;79.51
70544;BME280;58097;48.364;-1.224;2022-12-07T04:36:54;100138.59;;;0.56;79.58
70544;BME280;58097;48.364;-1.224;2022-12-07T04:39:23;100138.78;;;0.53;79.91
70544;BME280;58097;48.364;-1.224;2022-12-07T04:41:49;100130.91;;;0.48;80.77
70544;BME280;58097;48.364;-1.224;2022-12-07T04:44:15;100131.69;;;0.50;80.67
70544;BME280;58097;48.364;-1.224;2022-12-07T04:46:41;100129.94;;;0.49;80.99
70544;BME280;58097;48.364;-1.224;2022-12-07T04:49:07;100135.47;;;0.48;81.28
70544;BME280;58097;48.364;-1.224;2022-12-07T04:51:32;100142.47;;;0.52;82.01
70544;BME280;58097;48.364;-1.224;2022-12-07T04:53:58;100156.53;;;0.44;83.13
70544;BME280;58097;48.364;-1.224;2022-12-07T04:56:24;100166.34;;;0.47;82.74
70544;BME280;58097;48.364;-1.224;2022-12-07T04:58:51;100169.25;;;0.44;82.08
70544;BME280;58097;48.364;-1.224;2022-12-07T05:01:17;100165.47;;;0.46;81.73
70544;BME280;58097;48.364;-1.224;2022-12-07T05:03:43;100158.19;;;0.47;81.37
70544;BME280;58097;48.364;-1.224;2022-12-07T05:06:10;100155.47;;;0.47;81.20
70544;BME280;58097;48.364;-1.224;2022-12-07T05:08:36;100160.72;;;0.50;81.13
70544;BME280;58097;48.364;-1.224;2022-12-07T05:11:03;100155.38;;;0.48;80.84
70544;BME280;58097;48.364;-1.224;2022-12-07T05:13:29;100154.69;;;0.45;80.69
70544;BME280;58097;48.364;-1.224;2022-12-07T05:15:55;100150.31;;;0.42;80.59
70544;BME280;58097;48.364;-1.224;2022-12-07T05:18:20;100145.06;;;0.39;80.62
70544;BME280;58097;48.364;-1.224;2022-12-07T05:20:46;100142.03;;;0.29;80.60
70544;BME280;58097;48.364;-1.224;2022-12-07T05:23:11;100147.88;;;0.22;80.46
70544;BME280;58097;48.364;-1.224;2022-12-07T05:25:37;100143.41;;;0.21;80.74
70544;BME280;58097;48.364;-1.224;2022-12-07T05:28:03;100144.00;;;0.26;81.05
70544;BME280;58097;48.364;-1.224;2022-12-07T05:30:29;100151.03;;;0.30;80.94
70544;BME280;58097;48.364;-1.224;2022-12-07T05:32:55;100161.97;;;0.28;81.09
70544;BME280;58097;48.364;-1.224;2022-12-07T05:35:20;100161.38;;;0.23;81.35
70544;BME280;58097;48.364;-1.224;2022-12-07T05:37:46;100155.06;;;0.23;81.19
70544;BME280;58097;48.364;-1.224;2022-12-07T05:40:13;100160.16;;;0.29;81.61
70544;BME280;58097;48.364;-1.224;2022-12-07T05:42:39;100159.44;;;0.25;82.37
70544;BME280;58097;48.364;-1.224;2022-12-07T05:45:05;100159.44;;;0.25;82.00
70544;BME280;58097;48.364;-1.224;2022-12-07T05:47:31;100161.75;;;0.33;82.22
70544;BME280;58097;48.364;-1.224;2022-12-07T05:49:56;100157.88;;;0.37;82.51
70544;BME280;58097;48.364;-1.224;2022-12-07T05:52:22;100156.72;;;0.41;82.43
70544;BME280;58097;48.364;-1.224;2022-12-07T05:54:47;100158.00;;;0.50;82.65
70544;BME280;58097;48.364;-1.224;2022-12-07T05:57:13;100153.94;;;0.57;82.76
70544;BME280;58097;48.364;-1.224;2022-12-07T05:59:38;100153.78;;;0.60;82.43
70544;BME280;58097;48.364;-1.224;2022-12-07T06:04:33;100155.34;;;0.64;82.13
70544;BME280;58097;48.364;-1.224;2022-12-07T06:06:59;100155.44;;;0.63;82.09
70544;BME280;58097;48.364;-1.224;2022-12-07T06:09:26;100144.28;;;0.67;82.18
70544;BME280;58097;48.364;-1.224;2022-12-07T06:11:53;100150.59;;;0.68;82.49
70544;BME280;58097;48.364;-1.224;2022-12-07T06:14:37;100146.41;;;0.62;82.66
70544;BME280;58097;48.364;-1.224;2022-12-07T06:17:02;100139.72;;;0.68;82.79
70544;BME280;58097;48.364;-1.224;2022-12-07T06:19:28;100141.06;;;0.75;82.91
70544;BME280;58097;48.364;-1.224;2022-12-07T06:21:54;100137.09;;;0.80;82.82
70544;BME280;58097;48.364;-1.224;2022-12-07T06:24:19;100144.00;;;0.86;82.75
70544;BME280;58097;48.364;-1.224;2022-12-07T06:26:45;100152.16;;;0.86;82.97
70544;BME280;58097;48.364;-1.224;2022-12-07T06:29:11;100144.88;;;0.86;82.89
70544;BME280;58097;48.364;-1.224;2022-12-07T06:31:37;100142.69;;;0.93;82.97
70544;BME280;58097;48.364;-1.224;2022-12-07T06:34:05;100147.94;;;0.96;82.96
70544;BME280;58097;48.364;-1.224;2022-12-07T06:36:31;100142.19;;;1.01;83.01
70544;BME280;58097;48.364;-1.224;2022-12-07T06:38:56;100136.56;;;1.04;82.88
70544;BME280;58097;48.364;-1.224;2022-12-07T06:41:22;100141.03;;;1.05;82.64
70544;BME280;58097;48.364;-1.224;2022-12-07T06:43:48;100145.50;;;1.06;82.65
70544;BME280;58097;48.364;-1.224;2022-12-07T06:46:14;100142.59;;;1.09;82.43
70544;BME280;58097;48.364;-1.224;2022-12-07T06:48:40;100143.47;;;1.09;82.42
70544;BME280;58097;48.364;-1.224;2022-12-07T06:51:05;100144.63;;;1.05;82.11
70544;BME280;58097;48.364;-1.224;2022-12-07T06:53:31;100158.63;;;0.99;81.96
70544;BME280;58097;48.364;-1.224;2022-12-07T06:55:56;100166.84;;;0.83;82.37
70544;BME280;58097;48.364;-1.224;2022-12-07T06:58:22;100156.81;;;0.84;82.46
70544;BME280;58097;48.364;-1.224;2022-12-07T07:00:48;100162.19;;;0.85;82.54
70544;BME280;58097;48.364;-1.224;2022-12-07T07:03:14;100161.31;;;0.85;82.52
70544;BME280;58097;48.364;-1.224;2022-12-07T07:05:39;100157.53;;;0.87;83.63
70544;BME280;58097;48.364;-1.224;2022-12-07T07:08:05;100158.47;;;0.86;83.32
70544;BME280;58097;48.364;-1.224;2022-12-07T07:10:30;100154.72;;;0.89;82.88
70544;BME280;58097;48.364;-1.224;2022-12-07T07:12:56;100149.78;;;0.96;83.56
70544;BME280;58097;48.364;-1.224;2022-12-07T07:15:21;100154.25;;;0.97;83.37
70544;BME280;58097;48.364;-1.224;2022-12-07T07:17:47;100151.25;;;1.01;83.37
70544;BME280;58097;48.364;-1.224;2022-12-07T07:20:12;100150.75;;;1.09;83.41
70544;BME280;58097;48.364;-1.224;2022-12-07T07:22:38;100161.25;;;1.15;83.44
70544;BME280;58097;48.364;-1.224;2022-12-07T07:25:03;100152.81;;;1.19;83.63
70544;BME280;58097;48.364;-1.224;2022-12-07T07:27:29;100155.44;;;1.21;83.48
70544;BME280;58097;48.364;-1.224;2022-12-07T07:29:54;100150.00;;;1.21;83.27
70544;BME280;58097;48.364;-1.224;2022-12-07T07:32:20;100156.13;;;1.24;83.40
70544;BME280;58097;48.364;-1.224;2022-12-07T07:34:47;100148.63;;;1.28;83.38
70544;BME280;58097;48.364;-1.224;2022-12-07T07:37:12;100149.31;;;1.32;83.31
70544;BME280;58097;48.364;-1.224;2022-12-07T07:39:38;100153.38;;;1.39;83.44
70544;BME280;58097;48.364;-1.224;2022-12-07T07:42:04;100140.66;;;1.39;83.34
70544;BME280;58097;48.364;-1.224;2022-12-07T07:44:29;100152.13;;;1.44;83.08
70544;BME280;58097;48.364;-1.224;2022-12-07T07:46:55;100153.91;;;1.45;83.20
70544;BME280;58097;48.364;-1.224;2022-12-07T07:49:20;100146.69;;;1.44;83.06
70544;BME280;58097;48.364;-1.224;2022-12-07T07:51:45;100152.13;;;1.44;83.38
70544;BME280;58097;48.364;-1.224;2022-12-07T07:54:11;100149.34;;;1.46;83.41
70544;BME280;58097;48.364;-1.224;2022-12-07T07:56:36;100160.69;;;1.52;83.72
70544;BME280;58097;48.364;-1.224;2022-12-07T07:59:02;100155.06;;;1.55;83.51
70544;BME280;58097;48.364;-1.224;2022-12-07T08:01:27;100153.97;;;1.58;83.78
70544;BME280;58097;48.364;-1.224;2022-12-07T08:03:52;100153.88;;;1.60;83.40
70544;BME280;58097;48.364;-1.224;2022-12-07T08:06:18;100157.69;;;1.57;83.42
70544;BME280;58097;48.364;-1.224;2022-12-07T08:08:43;100155.72;;;1.59;83.37
70544;BME280;58097;48.364;-1.224;2022-12-07T08:11:09;100158.34;;;1.61;83.19
70544;BME280;58097;48.364;-1.224;2022-12-07T08:13:35;100151.06;;;1.61;83.20
70544;BME280;58097;48.364;-1.224;2022-12-07T08:16:07;100151.16;;;1.60;82.86
70544;BME280;58097;48.364;-1.224;2022-12-07T08:18:38;100149.31;;;1.60;83.05
70544;BME280;58097;48.364;-1.224;2022-12-07T08:21:04;100153.69;;;1.63;83.15
70544;BME280;58097;48.364;-1.224;2022-12-07T08:23:30;100153.69;;;1.63;82.89
70544;BME280;58097;48.364;-1.224;2022-12-07T08:26:00;100157.06;;;1.66;83.16
70544;BME280;58097;48.364;-1.224;2022-12-07T08:28:27;100158.63;;;1.70;82.79
70544;BME280;58097;48.364;-1.224;2022-12-07T08:30:58;100160.47;;;1.70;82.73
70544;BME280;58097;48.364;-1.224;2022-12-07T08:33:24;100158.81;;;1.67;82.55
70544;BME280;58097;48.364;-1.224;2022-12-07T08:35:50;100157.94;;;1.67;82.76
70544;BME280;58097;48.364;-1.224;2022-12-07T08:38:15;100162.53;;;1.66;82.90
70544;BME280;58097;48.364;-1.224;2022-12-07T08:40:40;100163.28;;;1.68;82.65
70544;BME280;58097;48.364;-1.224;2022-12-07T08:43:06;100155.31;;;1.65;82.63
70544;BME280;58097;48.364;-1.224;2022-12-07T08:45:31;100166.13;;;1.67;82.71
70544;BME280;58097;48.364;-1.224;2022-12-07T08:48:06;100149.78;;;1.67;82.63
70544;BME280;58097;48.364;-1.224;2022-12-07T08:50:33;100141.59;;;1.67;82.49
70544;BME280;58097;48.364;-1.224;2022-12-07T08:52:59;100145.31;;;1.66;82.26
70544;BME280;58097;48.364;-1.224;2022-12-07T08:55:25;100142.56;;;1.66;82.29
70544;BME280;58097;48.364;-1.224;2022-12-07T08:57:52;100153.56;;;1.64;82.22
70544;BME280;58097;48.364;-1.224;2022-12-07T09:00:18;100149.88;;;1.65;82.24
70544;BME280;58097;48.364;-1.224;2022-12-07T09:02:45;100153.56;;;1.64;82.25
70544;BME280;58097;48.364;-1.224;2022-12-07T09:05:11;100161.84;;;1.63;82.26
70544;BME280;58097;48.364;-1.224;2022-12-07T09:07:37;100151.94;;;1.62;82.13
70544;BME280;58097;48.364;-1.224;2022-12-07T09:10:05;100144.53;;;1.64;82.49
70544;BME280;58097;48.364;-1.224;2022-12-07T09:12:31;100149.66;;;1.68;82.57
70544;BME280;58097;48.364;-1.224;2022-12-07T09:14:56;100150.06;;;1.76;82.67
70544;BME280;58097;48.364;-1.224;2022-12-07T09:17:22;100148.91;;;1.80;82.60
70544;BME280;58097;48.364;-1.224;2022-12-07T09:19:47;100155.69;;;1.88;82.87
70544;BME280;58097;48.364;-1.224;2022-12-07T09:22:13;100155.84;;;1.99;83.05
70544;BME280;58097;48.364;-1.224;2022-12-07T09:24:38;100161.19;;;2.00;82.87
70544;BME280;58097;48.364;-1.224;2022-12-07T09:27:03;100161.78;;;2.05;82.77
70544;BME280;58097;48.364;-1.224;2022-12-07T09:29:29;100171.50;;;2.09;83.02
70544;BME280;58097;48.364;-1.224;2022-12-07T09:31:54;100172.28;;;2.11;83.00
70544;BME280;58097;48.364;-1.224;2022-12-07T09:34:20;100182.78;;;2.17;83.73
70544;BME280;58097;48.364;-1.224;2022-12-07T09:36:46;100182.69;;;2.19;83.74
70544;BME280;58097;48.364;-1.224;2022-12-07T09:39:11;100190.97;;;2.17;84.02
70544;BME280;58097;48.364;-1.224;2022-12-07T09:41:43;100184.22;;;2.23;83.84
70544;BME280;58097;48.364;-1.224;2022-12-07T09:44:13;100173.66;;;2.31;84.05
70544;BME280;58097;48.364;-1.224;2022-12-07T09:46:41;100183.09;;;2.40;84.05
70544;BME280;58097;48.364;-1.224;2022-12-07T09:49:17;100182.47;;;2.49;84.08
70544;BME280;58097;48.364;-1.224;2022-12-07T09:51:44;100176.00;;;2.64;84.57
70544;BME280;58097;48.364;-1.224;2022-12-07T09:54:13;100171.31;;;2.79;84.49
70544;BME280;58097;48.364;-1.224;2022-12-07T09:56:39;100171.16;;;2.95;84.83
70544;BME280;58097;48.364;-1.224;2022-12-07T09:59:04;100163.19;;;3.17;85.26
70544;BME280;58097;48.364;-1.224;2022-12-07T10:01:32;100167.13;;;3.38;84.86
70544;BME280;58097;48.364;-1.224;2022-12-07T10:04:15;100156.63;;;3.58;84.25
70544;BME280;58097;48.364;-1.224;2022-12-07T10:06:42;100163.41;;;3.65;83.81
70544;BME280;58097;48.364;-1.224;2022-12-07T10:09:18;100163.28;;;3.79;84.37
70544;BME280;58097;48.364;-1.224;2022-12-07T10:12:07;100151.63;;;4.01;84.23
70544;BME280;58097;48.364;-1.224;2022-12-07T10:14:37;100152.41;;;4.27;84.16
70544;BME280;58097;48.364;-1.224;2022-12-07T10:17:30;100152.28;;;4.52;83.66
70544;BME280;58097;48.364;-1.224;2022-12-07T10:20:28;100145.69;;;4.79;83.52
70544;BME280;58097;48.364;-1.224;2022-12-07T10:23:03;100141.28;;;5.00;83.48
70544;BME280;58097;48.364;-1.224;2022-12-07T10:25:33;100141.94;;;5.15;82.48
70544;BME280;58097;48.364;-1.224;2022-12-07T10:30:26;100143.63;;;5.51;83.36
70544;BME280;58097;48.364;-1.224;2022-12-07T10:32:52;100136.78;;;5.56;82.62
70544;BME280;58097;48.364;-1.224;2022-12-07T10:37:51;100138.28;;;5.94;82.93
70544;BME280;58097;48.364;-1.224;2022-12-07T10:40:34;100129.63;;;6.21;83.15
70544;BME280;58097;48.364;-1.224;2022-12-07T10:45:29;100132.94;;;6.47;81.07
70544;BME280;58097;48.364;-1.224;2022-12-07T10:53:42;100121.94;;;6.79;80.32
70544;BME280;58097;48.364;-1.224;2022-12-07T10:56:33;100116.25;;;6.92;80.22
70544;BME280;58097;48.364;-1.224;2022-12-07T11:01:46;100107.41;;;7.09;80.67
70544;BME280;58097;48.364;-1.224;2022-12-07T11:04:24;100108.09;;;7.01;77.93
70544;BME280;58097;48.364;-1.224;2022-12-07T11:06:58;100105.53;;;7.09;79.76
70544;BME280;58097;48.364;-1.224;2022-12-07T11:17:20;100093.22;;;7.25;76.82
70544;BME280;58097;48.364;-1.224;2022-12-07T11:30:16;100082.44;;;7.73;77.53
70544;BME280;58097;48.364;-1.224;2022-12-07T11:41:02;100069.69;;;8.12;74.90
70544;BME280;58097;48.364;-1.224;2022-12-07T11:43:52;100070.25;;;8.16;75.83
70544;BME280;58097;48.364;-1.224;2022-12-07T11:46:24;100070.13;;;8.17;76.32
70544;BME280;58097;48.364;-1.224;2022-12-07T11:49:58;100064.56;;;8.07;74.21
70544;BME280;58097;48.364;-1.224;2022-12-07T11:52:02;100058.75;;;8.01;73.13
70544;BME280;58097;48.364;-1.224;2022-12-07T11:54:34;100057.06;;;8.19;75.00
70544;BME280;58097;48.364;-1.224;2022-12-07T11:57:02;100057.06;;;8.10;74.16
70544;BME280;58097;48.364;-1.224;2022-12-07T11:59:44;100053.00;;;8.14;73.22
70544;BME280;58097;48.364;-1.224;2022-12-07T12:02:24;100049.41;;;8.23;74.30
70544;BME280;58097;48.364;-1.224;2022-12-07T12:05:18;100049.25;;;8.24;73.08
70544;BME280;58097;48.364;-1.224;2022-12-07T12:07:50;100047.94;;;8.28;75.37
70544;BME280;58097;48.364;-1.224;2022-12-07T12:10:22;100047.72;;;8.41;75.18
70544;BME280;58097;48.364;-1.224;2022-12-07T12:13:09;100033.47;;;8.26;72.25
70544;BME280;58097;48.364;-1.224;2022-12-07T12:16:05;100038.72;;;8.49;75.96
70544;BME280;58097;48.364;-1.224;2022-12-07T12:21:28;100024.38;;;8.55;73.72
70544;BME280;58097;48.364;-1.224;2022-12-07T12:24:10;100023.34;;;8.65;73.53
70544;BME280;58097;48.364;-1.224;2022-12-07T12:26:38;100018.69;;;8.76;74.65
70544;BME280;58097;48.364;-1.224;2022-12-07T12:29:38;100024.06;;;8.77;73.48
70544;BME280;58097;48.364;-1.224;2022-12-07T12:32:20;100012.00;;;8.88;73.37
70544;BME280;58097;48.364;-1.224;2022-12-07T12:42:56;100001.31;;;9.22;72.42
70544;BME280;58097;48.364;-1.224;2022-12-07T12:45:26;100003.91;;;9.23;73.67
70544;BME280;58097;48.364;-1.224;2022-12-07T12:50:32;99999.31;;;9.14;73.81
70544;BME280;58097;48.364;-1.224;2022-12-07T12:53:01;99988.88;;;9.08;72.80
70544;BME280;58097;48.364;-1.224;2022-12-07T12:58:37;99985.63;;;8.76;72.55
70544;BME280;58097;48.364;-1.224;2022-12-07T13:01:33;99983.91;;;8.65;72.66
70544;BME280;58097;48.364;-1.224;2022-12-07T13:04:03;99977.97;;;8.60;73.49
70544;BME280;58097;48.364;-1.224;2022-12-07T13:06:41;99980.28;;;8.64;74.26
70544;BME280;58097;48.364;-1.224;2022-12-07T13:09:24;99976.38;;;8.57;69.83
70544;BME280;58097;48.364;-1.224;2022-12-07T13:12:05;99972.91;;;8.36;69.75
70544;BME280;58097;48.364;-1.224;2022-12-07T13:17:03;99971.31;;;8.53;72.70
70544;BME280;58097;48.364;-1.224;2022-12-07T13:25:22;99967.38;;;8.07;69.05
70544;BME280;58097;48.364;-1.224;2022-12-07T13:28:03;99970.69;;;8.01;69.28
70544;BME280;58097;48.364;-1.224;2022-12-07T13:30:43;99962.31;;;7.93;68.36
70544;BME280;58097;48.364;-1.224;2022-12-07T13:33:10;99956.94;;;7.91;68.43
70544;BME280;58097;48.364;-1.224;2022-12-07T13:35:37;99949.25;;;7.95;69.09
70544;BME280;58097;48.364;-1.224;2022-12-07T13:38:05;99937.66;;;8.01;70.28
70544;BME280;58097;48.364;-1.224;2022-12-07T13:40:31;99944.75;;;8.03;67.09
70544;BME280;58097;48.364;-1.224;2022-12-07T13:43:02;99946.06;;;7.90;68.61
70544;BME280;58097;48.364;-1.224;2022-12-07T13:45:31;99941.88;;;7.86;70.77
70544;BME280;58097;48.364;-1.224;2022-12-07T13:48:55;99940.28;;;7.83;69.59
70544;BME280;58097;48.364;-1.224;2022-12-07T13:51:25;99939.97;;;7.76;71.00
70544;BME280;58097;48.364;-1.224;2022-12-07T13:54:08;99939.66;;;7.70;70.43
70544;BME280;58097;48.364;-1.224;2022-12-07T13:56:35;99936.91;;;7.60;71.55
70544;BME280;58097;48.364;-1.224;2022-12-07T13:59:02;99927.22;;;7.56;71.93
70544;BME280;58097;48.364;-1.224;2022-12-07T14:01:30;99923.88;;;7.53;72.69
70544;BME280;58097;48.364;-1.224;2022-12-07T14:03:56;99924.84;;;7.52;72.50
70544;BME280;58097;48.364;-1.224;2022-12-07T14:06:51;99924.84;;;7.52;72.01
70544;BME280;58097;48.364;-1.224;2022-12-07T14:09:25;99929.50;;;7.51;72.31
70544;BME280;58097;48.364;-1.224;2022-12-07T14:11:53;99916.16;;;7.46;72.28
70544;BME280;58097;48.364;-1.224;2022-12-07T14:14:22;99921.09;;;7.43;72.57
70544;BME280;58097;48.364;-1.224;2022-12-07T14:16:59;99916.75;;;7.40;72.80
70544;BME280;58097;48.364;-1.224;2022-12-07T14:19:46;99917.59;;;7.41;72.94
70544;BME280;58097;48.364;-1.224;2022-12-07T14:24:45;99916.50;;;7.53;73.31
70544;BME280;58097;48.364;-1.224;2022-12-07T14:27:18;99914.47;;;7.65;73.93
70544;BME280;58097;48.364;-1.224;2022-12-07T14:29:44;99904.66;;;7.82;72.84
70544;BME280;58097;48.364;-1.224;2022-12-07T14:32:24;99906.41;;;7.92;73.43